עמוד ראשי
METAR-TAF:

METAR-TAF

שדות תעופה :

Beaver Creek, יוקון, קנדה

קו רוחב: 62-25N, קו אורך: 140-52W, גובה: 649מטר

תצפית מזג אוויר נוכחית

הדו"ח נערך לפני 40דקות, בשעה 20:00 UTC
רוח 5קשר עם כיוונים משתנים עם משבים עד 16קשר
טמפרטורת 22 צלסיוס
לחות 35%
לחץ 1014 hPa
ראות: 40.2קילומטר
עננים בינוניים בגובה 5000רגל
מעונן בגובה 25000רגל

METAR: CYXQ 172000Z VRB05G16KT 25SM BKN050 OVC250 22/06 A2994 RMK CU5CI3 /TCU EMBD/DIST SH W// SLP150 DENSITY ALT 3500FT

זמן: 13:40 (20:40 UTC)


TAF: חסר

תצפיות ותחזיות מזג אוויר לגבי יותר מ- 4,000 שדות תעופה ברחבי העולם. דוחות METAR ו- TAF.

התחנות הזמינות מסומנות בנקודות צהובות ואדומות על גבי המפה.

העבר את העכבר לנקודה הצבעונית על מנת לראות את שם התחנה.

לאחר מכן, לחץ כדי לראות את תוכן ואת תחזיות מזג האוויר.

כדי לשנות את המפה: לחץ על הכפתורים הירוקים עם הפלוס השחור כדי להתקרב; על הכפתור הירוק עם המקף כדי להתרחק; או בחיצים הירוקים למפות סמוכות.


METAR-TAF: